Time;durP1;ratioP1;P1;durP2;ratioP2;P2;SDS_P1;SDS_P2;PMS_P1;PMS_P2;Temp;Humidity;BMP_temperature;BMP_pressure;BME280_temperature;BME280_humidity;BME280_pressure;Samples;Min_cycle;Max_cycle;Signal;HPM_P1;HPM_P2
2022/03/19 00:00:07;;;;;;;51.73;17.77;;;-2.60;1.00;;;;;;4334145;28;658146;-74
2022/03/19 00:02:55;;;;;;;47.50;15.33;;;-2.60;1.00;;;;;;4352297;28;657947;-73
2022/03/19 00:05:44;;;;;;;37.60;13.57;;;-2.50;1.00;;;;;;4350349;28;657715;-72
2022/03/19 00:08:32;;;;;;;33.07;12.50;;;-2.40;1.00;;;;;;4334434;28;657368;-72
2022/03/19 00:11:23;;;;;;;36.50;12.83;;;-2.40;1.00;;;;;;4345852;28;658574;-70
2022/03/19 00:14:12;;;;;;;36.03;12.37;;;-2.40;1.00;;;;;;4342366;28;657354;-72
2022/03/19 00:16:59;;;;;;;46.50;13.90;;;-2.30;1.00;;;;;;4352069;28;657704;-73
2022/03/19 00:19:47;;;;;;;54.10;16.13;;;-2.30;1.00;;;;;;4332211;28;657817;-75
2022/03/19 00:22:37;;;;;;;53.43;16.13;;;-2.30;1.00;;;;;;4352972;28;656873;-73
2022/03/19 00:25:25;;;;;;;46.13;15.33;;;-2.30;1.00;;;;;;4330375;28;657610;-73
2022/03/19 00:28:12;;;;;;;39.77;13.93;;;-2.30;1.00;;;;;;4329125;28;658644;-75
2022/03/19 00:31:00;;;;;;;38.97;14.93;;;-2.30;1.00;;;;;;4348383;28;658607;-74
2022/03/19 00:33:48;;;;;;;38.07;14.20;;;-2.40;1.00;;;;;;4353869;28;658576;-72
2022/03/19 00:36:35;;;;;;;36.22;15.27;;;-2.40;1.00;;;;;;4338593;28;657664;-71
2022/03/19 00:39:24;;;;;;;38.30;13.77;;;-2.40;1.00;;;;;;4353107;28;659440;-72
2022/03/19 00:42:12;;;;;;;43.27;14.97;;;-2.50;1.00;;;;;;4334237;28;657751;-75
2022/03/19 00:44:59;;;;;;;40.37;14.40;;;-2.50;1.00;;;;;;4350311;28;658446;-72
2022/03/19 00:47:47;;;;;;;41.03;14.70;;;-2.50;1.00;;;;;;4331564;28;657892;-73
2022/03/19 00:50:40;;;;;;;39.07;15.27;;;-2.60;1.00;;;;;;4348461;28;657857;-73
2022/03/19 00:53:28;;;;;;;41.90;15.15;;;-2.60;1.00;;;;;;4337903;28;658263;-72
2022/03/19 00:56:18;;;;;;;41.33;15.80;;;-2.60;1.00;;;;;;4342872;28;658033;-71
2022/03/19 00:59:08;;;;;;;38.03;16.23;;;-2.60;1.00;;;;;;4336932;28;657738;-74
2022/03/19 01:01:57;;;;;;;44.30;17.57;;;-2.60;1.00;;;;;;4331650;28;659167;-71
2022/03/19 01:04:45;;;;;;;50.73;17.37;;;-2.70;1.00;;;;;;4355085;28;657766;-74
2022/03/19 01:07:32;;;;;;;44.77;17.80;;;-2.60;1.00;;;;;;4332492;28;658185;-72
2022/03/19 01:10:21;;;;;;;48.10;17.53;;;-2.50;1.00;;;;;;4351814;28;658232;-73
2022/03/19 01:13:10;;;;;;;52.73;17.27;;;-2.50;1.00;;;;;;4330675;28;658326;-72
2022/03/19 01:15:58;;;;;;;43.40;18.00;;;-2.40;1.00;;;;;;4327051;28;658926;-71
2022/03/19 01:18:46;;;;;;;53.58;19.38;;;-2.40;1.00;;;;;;4336408;28;657992;-72
2022/03/19 01:21:33;;;;;;;51.67;18.57;;;-2.40;1.00;;;;;;4354290;28;658152;-72
2022/03/19 01:24:21;;;;;;;54.53;19.60;;;-2.30;1.00;;;;;;4332611;28;658801;-74
2022/03/19 01:27:08;;;;;;;53.07;18.27;;;-2.40;1.00;;;;;;4351189;28;657333;-72
2022/03/19 01:29:57;;;;;;;45.67;17.93;;;-2.40;1.00;;;;;;4329190;28;657922;-71
2022/03/19 01:32:45;;;;;;;52.73;19.07;;;-2.40;1.00;;;;;;4351056;28;658225;-73
2022/03/19 01:35:33;;;;;;;48.60;18.43;;;-2.40;1.00;;;;;;4326821;28;658484;-72
2022/03/19 01:38:20;;;;;;;42.07;16.43;;;-2.40;1.00;;;;;;4335025;28;658128;-72
2022/03/19 01:41:08;;;;;;;41.00;16.63;;;-2.50;1.00;;;;;;4348830;28;659129;-73
2022/03/19 01:43:55;;;;;;;44.97;17.00;;;-2.40;1.00;;;;;;4334711;28;657639;-72
2022/03/19 01:47:00;;;;;;;40.57;15.13;;;-2.40;1.00;;;;;;4352487;28;659198;-72
2022/03/19 01:49:47;;;;;;;38.92;16.08;;;-2.40;1.00;;;;;;4329977;28;657609;-72
2022/03/19 01:52:35;;;;;;;48.33;17.10;;;-2.40;1.00;;;;;;4345326;28;657147;-71
2022/03/19 01:55:24;;;;;;;44.07;17.60;;;-2.40;1.00;;;;;;4349261;28;658690;-72
2022/03/19 01:58:11;;;;;;;41.60;17.20;;;-2.50;1.00;;;;;;4330553;28;657653;-73
2022/03/19 02:00:58;;;;;;;40.50;16.20;;;-2.60;1.00;;;;;;4352896;28;659676;-75
2022/03/19 02:03:47;;;;;;;46.93;16.33;;;-2.60;1.00;;;;;;4331173;28;657612;-72
2022/03/19 02:06:35;;;;;;;41.63;15.83;;;-2.70;1.00;;;;;;4350598;28;657985;-72
2022/03/19 02:09:23;;;;;;;43.73;17.23;;;-2.80;1.00;;;;;;4326599;28;658368;-74
2022/03/19 02:12:11;;;;;;;42.10;17.20;;;-2.80;1.00;;;;;;4336144;28;657500;-72
2022/03/19 02:14:58;;;;;;;46.57;18.07;;;-2.80;1.00;;;;;;4358102;28;657880;-72
2022/03/19 02:17:46;;;;;;;46.67;19.00;;;-2.80;1.00;;;;;;4327453;28;657432;-73
2022/03/19 02:20:35;;;;;;;50.63;18.20;;;-2.90;1.00;;;;;;4354549;28;657630;-75
2022/03/19 02:26:29;;;;;;;52.90;19.03;;;-2.90;1.00;;;;;;4329618;28;658030;-74
2022/03/19 02:29:16;;;;;;;45.73;18.03;;;-2.90;1.00;;;;;;4332127;28;657512;-74
2022/03/19 02:32:06;;;;;;;41.27;17.07;;;-2.90;1.00;;;;;;4353435;28;658942;-71
2022/03/19 02:34:53;;;;;;;42.77;17.13;;;-2.90;1.00;;;;;;4330332;28;658177;-74
2022/03/19 02:37:41;;;;;;;47.35;17.45;;;-2.90;1.00;;;;;;4330651;28;657249;-71
2022/03/19 02:40:30;;;;;;;42.43;18.17;;;-2.80;1.00;;;;;;4354768;28;658406;-72
2022/03/19 02:43:17;;;;;;;47.43;17.13;;;-2.80;1.00;;;;;;4331363;28;658460;-72
2022/03/19 02:46:05;;;;;;;48.07;18.23;;;-2.70;1.00;;;;;;4350320;28;657991;-72
2022/03/19 02:48:52;;;;;;;45.30;18.90;;;-2.60;1.00;;;;;;4330790;28;658910;-73
2022/03/19 02:51:40;;;;;;;42.57;18.07;;;-2.60;1.00;;;;;;4352918;28;658095;-71
2022/03/19 02:54:29;;;;;;;43.07;16.13;;;-2.50;1.00;;;;;;4331737;28;658191;-71
2022/03/19 02:57:18;;;;;;;51.13;17.77;;;-2.50;1.00;;;;;;4331491;28;657629;-74
2022/03/19 03:00:07;;;;;;;42.60;17.17;;;-2.60;1.00;;;;;;4342962;28;657956;-73
2022/03/19 03:02:56;;;;;;;45.60;17.83;;;-2.50;1.00;;;;;;4351955;28;658222;-74
2022/03/19 03:05:43;;;;;;;54.43;18.03;;;-2.50;1.00;;;;;;4329928;28;657891;-74
2022/03/19 03:08:31;;;;;;;53.17;19.03;;;-2.50;1.00;;;;;;4335767;28;658295;-72
2022/03/19 03:11:18;;;;;;;48.83;17.90;;;-2.50;1.00;;;;;;4353132;28;657901;-73
2022/03/19 03:14:08;;;;;;;54.87;18.10;;;-2.50;1.00;;;;;;4334519;28;657802;-72
2022/03/19 03:16:56;;;;;;;45.83;18.27;;;-2.50;1.00;;;;;;4339046;28;657626;-71
2022/03/19 03:19:43;;;;;;;54.80;19.35;;;-2.50;1.00;;;;;;4352843;28;658951;-71
2022/03/19 03:22:31;;;;;;;48.27;17.70;;;-2.50;1.00;;;;;;4331384;28;657644;-71
2022/03/19 03:25:18;;;;;;;44.13;17.83;;;-2.50;1.00;;;;;;4354089;28;658446;-72
2022/03/19 03:28:06;;;;;;;43.03;17.10;;;-2.60;1.00;;;;;;4331278;28;658214;-72
2022/03/19 03:30:55;;;;;;;43.90;17.70;;;-2.60;1.00;;;;;;4357182;28;658912;-72
2022/03/19 03:33:42;;;;;;;50.65;18.48;;;-2.60;1.00;;;;;;4330855;28;658453;-72
2022/03/19 03:36:30;;;;;;;50.63;18.13;;;-2.60;1.00;;;;;;4345311;28;657314;-72
2022/03/19 03:39:18;;;;;;;51.10;19.47;;;-2.70;1.00;;;;;;4348683;28;659269;-72
2022/03/19 03:42:06;;;;;;;48.47;17.33;;;-2.70;1.00;;;;;;4342844;28;658338;-71
2022/03/19 03:44:58;;;;;;;44.23;17.67;;;-2.70;1.00;;;;;;4355961;28;657534;-72
2022/03/19 03:47:48;;;;;;;47.43;19.03;;;-2.70;1.00;;;;;;4335725;28;658038;-72
2022/03/19 03:50:35;;;;;;;47.07;16.83;;;-2.80;1.00;;;;;;4342716;28;658199;-71
2022/03/19 03:53:24;;;;;;;58.90;19.50;;;-2.90;1.00;;;;;;4351202;28;658468;-75
2022/03/19 03:56:12;;;;;;;44.87;18.30;;;-2.90;1.00;;;;;;4328418;28;658871;-72
2022/03/19 03:58:59;;;;;;;50.92;18.77;;;-3.00;1.00;;;;;;4352428;28;657867;-72
2022/03/19 04:01:47;;;;;;;54.50;18.90;;;-3.00;1.00;;;;;;4331191;28;657925;-71
2022/03/19 04:04:36;;;;;;;51.23;19.93;;;-3.10;1.00;;;;;;4351855;28;657995;-72
2022/03/19 04:07:23;;;;;;;44.27;18.47;;;-3.20;1.00;;;;;;4333673;28;657895;-72
2022/03/19 04:10:11;;;;;;;48.37;18.13;;;-3.20;1.00;;;;;;4334321;28;658231;-71
2022/03/19 04:12:58;;;;;;;45.60;17.85;;;-3.20;1.00;;;;;;4352619;28;659391;-72
2022/03/19 04:15:46;;;;;;;45.33;18.70;;;-3.20;1.00;;;;;;4333262;28;657451;-71
2022/03/19 04:18:33;;;;;;;53.43;20.27;;;-3.30;1.00;;;;;;4352166;28;657686;-72
2022/03/19 04:21:22;;;;;;;48.00;19.90;;;-3.40;1.00;;;;;;4332461;28;657456;-70
2022/03/19 04:24:09;;;;;;;49.53;18.70;;;-3.40;1.00;;;;;;4352421;28;657659;-72
2022/03/19 04:26:57;;;;;;;50.13;19.17;;;-3.50;1.00;;;;;;4334559;28;658260;-71
2022/03/19 04:29:45;;;;;;;50.57;20.10;;;-3.50;1.00;;;;;;4357746;28;658041;-72
2022/03/19 04:32:32;;;;;;;60.87;20.77;;;-3.50;1.00;;;;;;4329673;28;658899;-72
2022/03/19 04:39:05;;;;;;;50.03;19.17;;;-3.50;1.00;;;;;;4316114;28;658173;-73
2022/03/19 04:41:54;;;;;;;51.13;19.00;;;-3.50;1.00;;;;;;4321840;28;658683;-72
2022/03/19 04:44:41;;;;;;;48.30;19.07;;;-3.60;1.00;;;;;;4333842;28;657435;-73
2022/03/19 04:47:30;;;;;;;50.00;18.07;;;-3.60;1.00;;;;;;4353424;28;658600;-72
2022/03/19 04:50:17;;;;;;;45.30;18.60;;;-3.60;1.00;;;;;;4336335;28;658417;-72
2022/03/19 04:53:06;;;;;;;57.70;19.73;;;-3.60;1.00;;;;;;4346879;28;658107;-73
2022/03/19 04:55:53;;;;;;;39.33;17.97;;;-3.60;1.00;;;;;;4334586;28;658536;-72
2022/03/19 04:58:42;;;;;;;46.90;19.00;;;-3.60;1.00;;;;;;4326817;28;657738;-72
2022/03/19 05:01:31;;;;;;;57.23;21.37;;;-3.60;1.00;;;;;;4358859;28;658381;-71
2022/03/19 05:04:18;;;;;;;52.63;19.67;;;-3.50;1.00;;;;;;4329207;28;658046;-73
2022/03/19 05:07:06;;;;;;;55.87;19.60;;;-3.50;1.00;;;;;;4334506;28;658357;-73
2022/03/19 05:13:07;;;;;;;45.37;18.17;;;-3.40;1.00;;;;;;4261557;29;658269;-73
2022/03/19 05:15:56;;;;;;;44.23;17.83;;;-3.40;1.00;;;;;;4296439;29;657717;-73
2022/03/19 05:18:44;;;;;;;47.40;18.60;;;-3.40;1.00;;;;;;4280778;29;658861;-72
2022/03/19 05:21:32;;;;;;;41.50;17.67;;;-3.30;1.00;;;;;;4284030;29;658385;-73
2022/03/19 05:24:20;;;;;;;43.63;17.90;;;-3.20;1.00;;;;;;4301828;29;660404;-73
2022/03/19 05:27:09;;;;;;;42.33;17.05;;;-3.10;1.00;;;;;;4284399;29;658268;-74
2022/03/19 05:29:56;;;;;;;41.70;17.83;;;-2.90;1.00;;;;;;4279097;29;657587;-73
2022/03/19 05:32:45;;;;;;;42.70;18.23;;;-2.70;1.00;;;;;;4296467;29;657607;-73
2022/03/19 05:35:33;;;;;;;48.80;18.20;;;-2.60;1.00;;;;;;4275916;29;658699;-73
2022/03/19 05:38:20;;;;;;;45.87;18.93;;;-2.50;1.00;;;;;;4282682;29;657174;-73
2022/03/19 05:41:08;;;;;;;46.70;18.50;;;-2.30;1.00;;;;;;4304718;29;658463;-73
2022/03/19 05:43:55;;;;;;;47.97;19.30;;;-2.20;1.00;;;;;;4283937;29;657179;-73
2022/03/19 05:46:43;;;;;;;46.87;19.97;;;-2.00;1.00;;;;;;4301185;28;658327;-74
2022/03/19 05:49:32;;;;;;;41.35;17.15;;;-1.80;1.00;;;;;;4281547;29;657568;-72
2022/03/19 05:52:19;;;;;;;54.73;20.03;;;-1.60;1.00;;;;;;4317293;28;657572;-73
2022/03/19 05:55:08;;;;;;;48.60;19.13;;;-1.50;1.00;;;;;;4332319;28;658232;-72
2022/03/19 05:57:55;;;;;;;48.70;18.67;;;-1.30;1.00;;;;;;4329909;28;657498;-72
2022/03/19 06:00:43;;;;;;;54.17;20.63;;;-1.20;1.00;;;;;;4348182;28;658639;-73
2022/03/19 06:03:30;;;;;;;53.00;19.77;;;-1.10;1.00;;;;;;4337313;28;657779;-72
2022/03/19 06:06:19;;;;;;;50.90;20.27;;;-1.00;1.00;;;;;;4352793;28;658697;-73
2022/03/19 06:09:07;;;;;;;47.60;20.00;;;-0.90;1.00;;;;;;4328917;28;657968;-72
2022/03/19 06:11:54;;;;;;;47.67;19.63;;;-0.80;1.00;;;;;;4348769;28;657370;-73
2022/03/19 06:14:42;;;;;;;46.00;19.27;;;-0.70;1.00;;;;;;4327765;28;657375;-73
2022/03/19 06:17:29;;;;;;;54.63;20.60;;;-0.60;1.00;;;;;;4357432;28;657667;-73
2022/03/19 06:20:22;;;;;;;51.73;19.27;;;-0.50;1.00;;;;;;4329515;28;657843;-73
2022/03/19 06:23:11;;;;;;;47.10;18.23;;;-0.30;1.00;;;;;;4325552;28;658082;-73
2022/03/19 06:25:59;;;;;;;49.30;19.37;;;-0.20;1.00;;;;;;4332081;28;658522;-73
2022/03/19 06:28:46;;;;;;;48.67;17.87;;;0.00;1.00;;;;;;4336557;28;657811;-73
2022/03/19 06:31:34;;;;;;;46.78;17.25;;;0.20;1.00;;;;;;4349726;28;657792;-73
2022/03/19 06:34:21;;;;;;;44.17;14.87;;;0.40;1.00;;;;;;4328502;28;658029;-73
2022/03/19 06:37:20;;;;;;;43.07;15.33;;;0.60;1.00;;;;;;4353577;28;656701;-74
2022/03/19 06:40:10;;;;;;;33.40;14.05;;;0.80;1.00;;;;;;4337254;28;657067;-73
2022/03/19 06:42:57;;;;;;;40.20;16.10;;;1.00;1.00;;;;;;4337159;28;657705;-73
2022/03/19 06:45:45;;;;;;;35.63;15.63;;;1.20;1.00;;;;;;4351787;28;656528;-72
2022/03/19 06:48:33;;;;;;;40.83;16.50;;;1.40;1.00;;;;;;4353519;28;657951;-72
2022/03/19 06:51:20;;;;;;;44.83;17.60;;;1.50;1.00;;;;;;4334096;28;656779;-72
2022/03/19 06:54:08;;;;;;;36.17;15.07;;;1.70;1.00;;;;;;4358850;28;657751;-73
2022/03/19 06:56:57;;;;;;;37.05;15.48;;;1.70;1.00;;;;;;4337472;28;657183;-73
2022/03/19 06:59:45;;;;;;;34.17;15.03;;;1.90;1.00;;;;;;4353931;28;657456;-73
2022/03/19 07:02:33;;;;;;;39.07;15.57;;;2.10;1.00;;;;;;4335656;28;657672;-72
2022/03/19 07:05:21;;;;;;;35.00;14.63;;;2.20;1.00;;;;;;4332350;28;656556;-72
2022/03/19 07:08:09;;;;;;;37.00;15.03;;;2.30;1.00;;;;;;4349547;28;657126;-73
2022/03/19 07:10:56;;;;;;;33.20;14.90;;;2.40;1.00;;;;;;4329752;28;656832;-73
2022/03/19 07:13:45;;;;;;;34.45;15.30;;;2.50;1.00;;;;;;4355458;28;656995;-73
2022/03/19 07:16:32;;;;;;;35.50;15.37;;;2.70;1.00;;;;;;4328569;28;657765;-73
2022/03/19 07:19:21;;;;;;;30.50;14.17;;;2.80;1.00;;;;;;4351627;28;656123;-72
2022/03/19 07:22:08;;;;;;;34.93;13.90;;;3.00;1.00;;;;;;4355034;28;656970;-73
2022/03/19 07:24:56;;;;;;;40.30;14.57;;;3.20;1.00;;;;;;4341472;28;656852;-72
2022/03/19 07:27:43;;;;;;;25.23;10.67;;;3.40;1.00;;;;;;4364177;28;657394;-73
2022/03/19 07:30:32;;;;;;;21.33;11.30;;;3.50;1.00;;;;;;4335655;28;656559;-72
2022/03/19 07:33:20;;;;;;;27.07;10.80;;;3.60;1.00;;;;;;4361243;28;657415;-73
2022/03/19 07:36:07;;;;;;;24.50;10.63;;;3.80;1.00;;;;;;4328789;28;657201;-73
2022/03/19 07:38:55;;;;;;;28.30;10.77;;;3.90;1.00;;;;;;4348934;28;656772;-73
2022/03/19 07:41:48;;;;;;;24.77;11.23;;;4.10;1.00;;;;;;4340696;28;657630;-73
2022/03/19 07:44:36;;;;;;;23.27;10.77;;;4.20;1.00;;;;;;4308324;28;656908;-72
2022/03/19 07:47:25;;;;;;;20.43;9.17;;;4.40;1.00;;;;;;4356044;28;656770;-73
2022/03/19 07:50:12;;;;;;;29.47;11.70;;;4.50;1.00;;;;;;4335118;28;656676;-73
2022/03/19 07:53:00;;;;;;;24.23;11.37;;;4.70;1.00;;;;;;4355972;28;655988;-73
2022/03/19 07:55:48;;;;;;;23.95;10.40;;;4.90;1.00;;;;;;4337694;28;657274;-73
2022/03/19 07:58:36;;;;;;;25.77;9.63;;;5.00;1.00;;;;;;4330846;28;656763;-73
2022/03/19 08:01:24;;;;;;;23.17;10.43;;;5.20;1.00;;;;;;4361452;28;656223;-73
2022/03/19 08:04:13;;;;;;;23.57;10.33;;;5.20;1.00;;;;;;4333476;28;656847;-73
2022/03/19 08:07:00;;;;;;;23.93;10.83;;;5.30;1.00;;;;;;4345081;28;656754;-72
2022/03/19 08:09:48;;;;;;;23.03;10.07;;;5.50;1.00;;;;;;4353900;28;658105;-73
2022/03/19 08:12:35;;;;;;;24.10;10.70;;;5.70;1.00;;;;;;4340913;28;656585;-73
2022/03/19 08:15:23;;;;;;;20.27;9.07;;;5.80;1.00;;;;;;4360746;28;657318;-73
2022/03/19 08:18:12;;;;;;;16.47;8.40;;;5.90;1.00;;;;;;4342189;28;655727;-74
2022/03/19 08:21:01;;;;;;;18.73;8.70;;;6.10;1.00;;;;;;4360441;28;655967;-74
2022/03/19 08:23:49;;;;;;;19.37;9.47;;;6.00;1.00;;;;;;4335472;28;655777;-74
2022/03/19 08:26:36;;;;;;;25.38;9.82;;;6.20;1.00;;;;;;4336819;28;656273;-73
2022/03/19 08:29:25;;;;;;;20.23;9.70;;;6.30;1.00;;;;;;4355355;28;656342;-73
2022/03/19 08:32:12;;;;;;;18.03;8.87;;;6.50;1.00;;;;;;4330394;28;656546;-74
2022/03/19 08:35:00;;;;;;;20.77;9.23;;;6.60;1.00;;;;;;4350807;28;655488;-73
2022/03/19 08:40:15;;;;;;;16.93;8.00;;;6.90;1.00;;;;;;4360396;28;656585;-73
2022/03/19 08:40:57;;;;;;;27.40;10.33;;;7.00;1.00;;;;;;4334281;28;656366;-73
2022/03/19 08:43:45;;;;;;;31.50;12.07;;;7.10;1.00;;;;;;4352655;28;656333;-74
2022/03/19 08:46:32;;;;;;;31.67;14.50;;;7.10;1.00;;;;;;4330791;28;657548;-73
2022/03/19 08:49:21;;;;;;;18.80;9.60;;;7.30;1.00;;;;;;4353905;28;656368;-73
2022/03/19 08:52:08;;;;;;;19.23;8.87;;;7.30;1.00;;;;;;4362586;28;656235;-73
2022/03/19 08:54:57;;;;;;;19.90;10.10;;;7.50;1.00;;;;;;4332004;28;655722;-73
2022/03/19 08:57:44;;;;;;;20.17;10.03;;;7.60;1.00;;;;;;4348126;28;656823;-73
2022/03/19 09:00:32;;;;;;;20.80;10.40;;;7.80;1.00;;;;;;4332762;28;656155;-73
2022/03/19 09:03:19;;;;;;;22.93;10.33;;;8.10;1.00;;;;;;4351872;28;656506;-74
2022/03/19 09:06:10;;;;;;;54.13;17.83;;;8.40;1.00;;;;;;4331032;28;657141;-73
2022/03/19 09:08:59;;;;;;;25.77;11.30;;;8.50;1.00;;;;;;4327340;28;657748;-74
2022/03/19 09:11:48;;;;;;;31.37;11.40;;;8.60;1.00;;;;;;4328958;28;656587;-73
2022/03/19 09:14:36;;;;;;;39.97;16.73;;;8.80;1.00;;;;;;4329821;28;656847;-74
2022/03/19 09:17:23;;;;;;;21.47;11.10;;;8.90;1.00;;;;;;4346312;28;657181;-74
2022/03/19 09:20:12;;;;;;;19.20;9.67;;;9.10;1.00;;;;;;4329300;28;657284;-73
2022/03/19 09:23:01;;;;;;;17.60;8.73;;;9.40;1.00;;;;;;4353221;28;655510;-75
2022/03/19 09:25:49;;;;;;;19.20;8.80;;;9.40;1.00;;;;;;4325087;28;655533;-74
2022/03/19 09:28:38;;;;;;;16.80;8.27;;;9.50;1.00;;;;;;4330331;28;656004;-74
2022/03/19 09:31:26;;;;;;;16.60;8.23;;;9.70;1.00;;;;;;4337861;28;655267;-74
2022/03/19 09:34:13;;;;;;;18.47;8.03;;;9.70;1.00;;;;;;4349298;28;656555;-74
2022/03/19 09:37:01;;;;;;;19.97;8.57;;;9.70;1.00;;;;;;4329791;28;655896;-73
2022/03/19 09:39:49;;;;;;;22.17;9.37;;;9.70;1.00;;;;;;4360005;28;656010;-74
2022/03/19 09:42:36;;;;;;;16.83;8.43;;;9.80;1.00;;;;;;4327842;28;655632;-74
2022/03/19 09:45:26;;;;;;;15.43;8.03;;;10.00;1.00;;;;;;4350953;28;656627;-74
2022/03/19 09:48:14;;;;;;;18.37;8.77;;;10.00;1.00;;;;;;4333971;28;657493;-74
2022/03/19 09:51:02;;;;;;;17.83;8.47;;;10.10;1.00;;;;;;4333336;28;656627;-75
2022/03/19 09:53:50;;;;;;;20.17;9.17;;;10.30;1.00;;;;;;4355189;28;656434;-76
2022/03/19 09:56:37;;;;;;;17.23;8.47;;;10.60;1.00;;;;;;4329875;28;657456;-75
2022/03/19 09:59:27;;;;;;;14.73;8.00;;;10.70;1.00;;;;;;4353326;28;657160;-73
2022/03/19 10:02:16;;;;;;;17.60;7.10;;;10.80;1.00;;;;;;4350145;28;656496;-75
2022/03/19 10:08:35;;;;;;;14.77;7.03;;;10.90;1.00;;;;;;4315412;28;657142;-73
2022/03/19 10:11:18;;;;;;;18.20;7.13;;;11.10;1.00;;;;;;4303465;28;657091;-75
2022/03/19 10:14:06;;;;;;;14.07;7.50;;;11.20;1.00;;;;;;4332258;28;656844;-72
2022/03/19 10:16:56;;;;;;;16.37;8.73;;;11.30;1.00;;;;;;4365143;28;657405;-75
2022/03/19 10:19:51;;;;;;;17.77;8.83;;;11.30;1.00;;;;;;4328381;28;657209;-75
2022/03/19 10:22:40;;;;;;;13.93;7.07;;;11.50;1.00;;;;;;4319719;28;656972;-75
2022/03/19 10:25:28;;;;;;;17.53;7.83;;;11.50;1.00;;;;;;4334588;28;657258;-75
2022/03/19 10:28:15;;;;;;;14.03;8.03;;;11.40;1.00;;;;;;4356305;28;656611;-73
2022/03/19 10:31:03;;;;;;;16.63;8.37;;;11.40;1.00;;;;;;4362090;28;657443;-75
2022/03/19 10:33:51;;;;;;;16.23;6.97;;;11.60;1.00;;;;;;4327645;28;656950;-74
2022/03/19 10:36:40;;;;;;;14.47;6.67;;;11.50;1.00;;;;;;4346732;28;657716;-74
2022/03/19 10:39:29;;;;;;;17.77;7.97;;;11.40;1.00;;;;;;4323113;28;656943;-74
2022/03/19 10:42:17;;;;;;;22.93;9.20;;;11.60;1.00;;;;;;4325377;28;656641;-75
2022/03/19 10:45:05;;;;;;;15.80;7.60;;;11.80;1.00;;;;;;4356946;28;656226;-74
2022/03/19 10:47:53;;;;;;;16.00;7.63;;;12.00;1.00;;;;;;4335080;28;657186;-74
2022/03/19 10:50:41;;;;;;;15.03;7.93;;;12.10;1.00;;;;;;4337378;28;656676;-74
2022/03/19 10:53:30;;;;;;;23.67;8.00;;;12.20;1.00;;;;;;4353665;28;657143;-75
2022/03/19 10:56:17;;;;;;;23.70;8.10;;;12.30;1.00;;;;;;4331043;28;657294;-75
2022/03/19 10:59:05;;;;;;;24.13;9.67;;;12.30;1.00;;;;;;4351319;28;656614;-74
2022/03/19 11:01:53;;;;;;;22.57;9.60;;;12.30;1.00;;;;;;4351235;28;658083;-73
2022/03/19 11:04:40;;;;;;;15.13;7.83;;;12.40;1.00;;;;;;4333257;28;656035;-73
2022/03/19 11:07:30;;;;;;;20.47;8.30;;;12.50;1.00;;;;;;4356854;28;656625;-75
2022/03/19 11:10:19;;;;;;;45.83;11.50;;;12.60;1.00;;;;;;4334274;28;656514;-76
2022/03/19 11:13:07;;;;;;;20.50;9.13;;;12.90;1.00;;;;;;4339200;28;657305;-75
2022/03/19 11:15:56;;;;;;;42.73;13.33;;;13.20;1.00;;;;;;4355534;28;656930;-73
2022/03/19 11:18:43;;;;;;;37.93;13.33;;;13.30;1.00;;;;;;4355984;28;657720;-76
2022/03/19 11:21:32;;;;;;;20.63;10.23;;;13.40;1.00;;;;;;4333104;28;657581;-76
2022/03/19 11:24:23;;;;;;;45.77;15.07;;;13.50;1.00;;;;;;4355318;28;657421;-75
2022/03/19 11:27:12;;;;;;;27.67;12.23;;;13.40;1.00;;;;;;4312550;28;658675;-76
2022/03/19 11:30:00;;;;;;;20.27;10.70;;;13.50;1.00;;;;;;4348945;28;657820;-75
2022/03/19 11:33:04;;;;;;;24.83;11.27;;;13.40;1.00;;;;;;4328139;28;658088;-75
2022/03/19 11:36:04;;;;;;;21.33;10.63;;;13.70;1.00;;;;;;4331467;28;657684;-75
2022/03/19 11:38:53;;;;;;;29.53;12.33;;;13.80;1.00;;;;;;4306660;28;658200;-75
2022/03/19 11:41:41;;;;;;;32.73;13.20;;;14.20;1.00;;;;;;4336157;28;657748;-74
2022/03/19 11:44:30;;;;;;;20.70;10.80;;;14.20;1.00;;;;;;4355248;28;658028;-74
2022/03/19 11:47:19;;;;;;;20.50;10.40;;;14.30;1.00;;;;;;4337556;28;659915;-75
2022/03/19 11:50:19;;;;;;;16.30;9.00;;;14.10;1.00;;;;;;4328861;28;658237;-75
2022/03/19 11:53:07;;;;;;;17.10;9.17;;;14.10;1.00;;;;;;4304205;28;657233;-73
2022/03/19 11:56:03;;;;;;;25.87;9.80;;;14.20;1.00;;;;;;4351043;28;657299;-74
2022/03/19 11:58:51;;;;;;;17.97;8.90;;;14.40;1.00;;;;;;4314809;28;656606;-75
2022/03/19 12:01:54;;;;;;;16.60;8.73;;;14.30;1.00;;;;;;4358392;28;656272;-76
2022/03/19 12:04:47;;;;;;;18.67;8.60;;;14.10;1.00;;;;;;4306445;28;657133;-76
2022/03/19 12:07:42;;;;;;;18.03;8.80;;;14.00;1.00;;;;;;4327421;28;656674;-75
2022/03/19 12:10:35;;;;;;;15.30;7.33;;;14.20;1.00;;;;;;4335696;28;656623;-75
2022/03/19 12:13:39;;;;;;;16.90;8.63;;;13.90;1.00;;;;;;4302623;28;657871;-76
2022/03/19 12:16:40;;;;;;;19.90;7.70;;;14.00;1.00;;;;;;4307156;28;657777;-75
2022/03/19 12:19:50;;;;;;;14.97;7.60;;;14.20;1.00;;;;;;4333125;28;656601;-75
2022/03/19 12:22:38;;;;;;;14.50;8.17;;;14.20;1.00;;;;;;4305760;28;656645;-75
2022/03/19 12:25:26;;;;;;;21.27;8.73;;;14.10;1.00;;;;;;4333216;28;656895;-74
2022/03/19 12:28:16;;;;;;;18.07;8.60;;;14.20;1.00;;;;;;4355058;28;657252;-75
2022/03/19 12:31:05;;;;;;;19.17;7.33;;;14.40;1.00;;;;;;4339914;28;657393;-75
2022/03/19 12:33:53;;;;;;;18.38;8.90;;;14.80;1.00;;;;;;4331175;28;657498;-76
2022/03/19 12:36:42;;;;;;;22.33;7.80;;;14.60;1.00;;;;;;4333574;28;656783;-74
2022/03/19 12:39:30;;;;;;;15.80;8.00;;;14.60;1.00;;;;;;4356915;28;657000;-75
2022/03/19 12:42:29;;;;;;;19.03;8.03;;;14.50;1.00;;;;;;4329676;28;657591;-76
2022/03/19 12:45:17;;;;;;;13.57;7.63;;;14.40;1.00;;;;;;4311455;28;657689;-75
2022/03/19 12:48:09;;;;;;;14.53;7.47;;;14.30;1.00;;;;;;4351824;28;656255;-75
2022/03/19 12:50:57;;;;;;;15.70;7.40;;;14.40;1.00;;;;;;4310970;28;657427;-75
2022/03/19 12:53:45;;;;;;;13.53;7.37;;;14.30;1.00;;;;;;4353916;28;656215;-75
2022/03/19 12:56:33;;;;;;;15.03;7.93;;;14.50;1.00;;;;;;4332191;28;657670;-75
2022/03/19 12:59:22;;;;;;;17.27;8.37;;;14.50;1.00;;;;;;4330851;28;656353;-73
2022/03/19 13:02:10;;;;;;;13.33;7.10;;;14.40;1.00;;;;;;4353144;28;656611;-75
2022/03/19 13:04:57;;;;;;;13.60;7.57;;;14.50;1.00;;;;;;4333077;28;659182;-75
2022/03/19 13:08:03;;;;;;;14.57;7.07;;;14.30;1.00;;;;;;4356169;28;656685;-75
2022/03/19 13:10:53;;;;;;;18.70;8.03;;;14.70;1.00;;;;;;4308936;28;656450;-75
2022/03/19 13:13:42;;;;;;;17.33;7.93;;;15.00;1.00;;;;;;4333725;28;656515;-74
2022/03/19 13:16:30;;;;;;;16.07;8.30;;;15.00;1.00;;;;;;4354298;28;656577;-75
2022/03/19 13:19:18;;;;;;;11.60;6.93;;;15.30;1.00;;;;;;4329146;28;657329;-75
2022/03/19 13:22:08;;;;;;;15.73;8.53;;;15.10;1.00;;;;;;4329189;28;656601;-74
2022/03/19 13:24:56;;;;;;;13.90;8.10;;;15.10;1.00;;;;;;4332794;28;657409;-74
2022/03/19 13:27:51;;;;;;;17.83;8.63;;;15.20;1.00;;;;;;4355856;28;656413;-75
2022/03/19 13:30:40;;;;;;;12.77;6.93;;;15.30;1.00;;;;;;4334072;28;657510;-75
2022/03/19 13:33:30;;;;;;;12.27;7.40;;;15.50;1.00;;;;;;4327556;28;657066;-75
2022/03/19 13:36:18;;;;;;;21.57;8.87;;;15.40;1.00;;;;;;4334998;28;657564;-76
2022/03/19 13:39:06;;;;;;;19.07;8.20;;;15.50;1.00;;;;;;4333182;28;656531;-74
2022/03/19 13:41:54;;;;;;;18.60;9.43;;;15.70;1.00;;;;;;4353199;28;657376;-74
2022/03/19 13:44:44;;;;;;;14.70;7.40;;;15.50;1.00;;;;;;4333061;28;656631;-75
2022/03/19 13:47:35;;;;;;;14.43;8.33;;;15.40;1.00;;;;;;4325576;28;657482;-75
2022/03/19 13:50:23;;;;;;;23.85;9.70;;;15.60;1.00;;;;;;4337630;28;657255;-75
2022/03/19 13:53:10;;;;;;;18.67;8.33;;;15.80;1.00;;;;;;4336540;28;656641;-74
2022/03/19 13:55:58;;;;;;;16.53;7.83;;;15.90;1.00;;;;;;4354684;28;657246;-75
2022/03/19 13:58:58;;;;;;;19.47;8.57;;;15.80;1.00;;;;;;4338110;28;656623;-76
2022/03/19 14:01:47;;;;;;;19.20;7.43;;;15.90;1.00;;;;;;4305999;28;656414;-74
2022/03/19 14:04:37;;;;;;;16.57;7.67;;;16.00;1.00;;;;;;4350209;28;656414;-75
2022/03/19 14:07:31;;;;;;;14.87;7.93;;;16.30;1.00;;;;;;4328280;28;657296;-75
2022/03/19 14:10:19;;;;;;;16.60;8.03;;;16.60;1.00;;;;;;4322168;28;656760;-75
2022/03/19 14:13:08;;;;;;;34.53;14.23;;;16.80;1.00;;;;;;4326561;28;657808;-74
2022/03/19 14:15:56;;;;;;;30.70;12.07;;;17.10;1.00;;;;;;4338433;28;657552;-74
2022/03/19 14:18:46;;;;;;;20.50;8.57;;;17.50;1.00;;;;;;4358568;28;658664;-75
2022/03/19 14:21:36;;;;;;;17.23;8.37;;;17.60;1.00;;;;;;4330589;28;658144;-75
2022/03/19 14:24:28;;;;;;;17.20;8.00;;;18.10;1.00;;;;;;4327185;28;657799;-75
2022/03/19 14:27:16;;;;;;;21.87;8.20;;;18.50;1.00;;;;;;4284535;28;656448;-74
2022/03/19 14:30:04;;;;;;;17.00;7.30;;;18.70;1.00;;;;;;4335360;28;657740;-74
2022/03/19 14:32:54;;;;;;;17.93;8.17;;;18.90;99.90;;;;;;4300492;28;656651;-75
2022/03/19 14:35:48;;;;;;;19.87;8.00;;;18.80;99.90;;;;;;4303348;28;658888;-75